UKOH/KHE METAR and TAF weather

Enter ICAO airport designator
Station Type Date Time Source
UKOH METAR 2019/08/24 19:00 UTC NOAA

UKOH 241900Z 02003MPS 330V050 CAVOK 27/16 Q1019 R03/CLRD// NOSIG


Station Type Date Time Source
UKOH Decoded METAR 2019/08/24 19:00 UTC NOAA

Station name not available
Aug 24, 2019 - 03:00 PM EDT / 2019.08.24 1900 UTC
Wind: from the NNE (020 degrees) at 7 MPH (6 KT) (direction variable):0
Visibility: greater than 7 mile(s):0
Temperature: 80 F (27 C)
Dew Point: 60 F (16 C)
Relative Humidity: 50%
Pressure (altimeter): 30.09 in. Hg (1019 hPa)
ob: UKOH 241900Z 02003MPS 330V050 CAVOK 27/16 Q1019 R03/CLRD// NOSIG
cycle: 19

Station Type Date Time Source
UKOH TAF UTC NOAA

Error!

Example: see airport list